Time;durP1;ratioP1;P1;durP2;ratioP2;P2;SDS_P1;SDS_P2;PMS_P1;PMS_P2;Temp;Humidity;BMP_temperature;BMP_pressure;BME280_temperature;BME280_humidity;BME280_pressure;Samples;Min_cycle;Max_cycle;Signal;HPM_P1;HPM_P2
2023/09/11 00:01:25;;;;;;;11.30;9.10;;;;;;;12.76;76.52;100856.79;88478;282;138500;-66
2023/09/11 00:03:26;;;;;;;14.80;9.50;;;;;;;12.71;76.86;100858.13;88571;277;24033;-67
2023/09/11 00:05:28;;;;;;;12.00;9.50;;;;;;;12.69;77.09;100854.11;88508;281;136531;-68
2023/09/11 00:07:30;;;;;;;15.30;9.90;;;;;;;12.67;77.38;100853.97;88640;281;22882;-67
2023/09/11 00:09:32;;;;;;;12.50;9.50;;;;;;;12.63;77.81;100855.13;88552;273;137958;-65
2023/09/11 00:11:34;;;;;;;13.30;10.00;;;;;;;12.62;77.93;100855.19;88483;285;22538;-66
2023/09/11 00:13:38;;;;;;;12.20;10.10;;;;;;;12.58;77.74;100853.59;88632;280;137446;-69
2023/09/11 00:15:41;;;;;;;14.10;9.90;;;;;;;12.50;78.29;100853.98;88773;274;22523;-65
2023/09/11 00:17:43;;;;;;;11.60;9.50;;;;;;;12.45;78.45;100854.95;88612;278;136496;-67
2023/09/11 00:19:45;;;;;;;19.60;10.30;;;;;;;12.46;78.56;100852.87;88802;281;22616;-66
2023/09/11 00:21:47;;;;;;;11.70;10.50;;;;;;;12.43;78.65;100852.77;88580;280;137097;-67
2023/09/11 00:23:49;;;;;;;11.60;9.20;;;;;;;12.43;78.93;100853.17;88701;281;24314;-67
2023/09/11 00:25:52;;;;;;;19.80;9.10;;;;;;;12.48;78.86;100850.43;88442;284;137905;-69
2023/09/11 00:27:53;;;;;;;13.50;9.90;;;;;;;12.43;79.27;100851.02;88799;280;25290;-68
2023/09/11 00:29:57;;;;;;;9.90;8.70;;;;;;;12.46;79.25;100849.75;88520;275;138040;-67
2023/09/11 00:31:59;;;;;;;11.00;8.50;;;;;;;12.53;79.11;100852.09;88618;277;23113;-66
2023/09/11 00:34:01;;;;;;;12.70;8.50;;;;;;;12.58;79.31;100848.35;88465;281;137105;-66
2023/09/11 00:36:02;;;;;;;12.30;9.20;;;;;;;12.58;79.43;100851.77;88454;278;138445;-69
2023/09/11 00:38:05;;;;;;;12.60;9.50;;;;;;;12.52;79.67;100850.27;88629;274;22537;-67
2023/09/11 00:40:08;;;;;;;11.20;9.20;;;;;;;12.47;80.22;100849.64;88452;273;136626;-68
2023/09/11 00:42:10;;;;;;;13.80;9.30;;;;;;;12.46;80.32;100846.21;88459;275;22520;-70
2023/09/11 00:44:12;;;;;;;11.80;10.00;;;;;;;12.42;80.35;100846.50;88348;282;137680;-67
2023/09/11 00:46:14;;;;;;;12.40;9.30;;;;;;;12.35;80.65;100842.63;88615;282;25079;-69
2023/09/11 00:48:15;;;;;;;9.90;8.80;;;;;;;12.34;80.57;100843.23;88646;280;137352;-63
2023/09/11 00:50:18;;;;;;;12.30;8.90;;;;;;;12.36;80.60;100840.58;88652;280;25080;-67
2023/09/11 00:52:20;;;;;;;11.60;9.30;;;;;;;12.31;80.75;100838.52;88549;277;137169;-68
2023/09/11 00:54:23;;;;;;;16.30;10.20;;;;;;;12.27;80.98;100837.34;88766;273;25222;-65
2023/09/11 00:56:25;;;;;;;11.10;9.10;;;;;;;12.33;80.86;100836.67;88475;273;137540;-64
2023/09/11 00:58:28;;;;;;;16.70;10.40;;;;;;;12.28;81.03;100838.44;88634;273;24049;-68
2023/09/11 01:00:31;;;;;;;15.90;10.00;;;;;;;12.28;81.12;100835.23;88607;280;138426;-68
2023/09/11 01:02:33;;;;;;;11.30;9.30;;;;;;;12.36;80.87;100838.70;88622;280;26532;-66
2023/09/11 01:04:36;;;;;;;10.70;9.60;;;;;;;12.36;80.75;100836.27;88448;275;136903;-67
2023/09/11 01:06:38;;;;;;;16.40;11.70;;;;;;;12.36;80.79;100831.48;88682;280;22554;-66
2023/09/11 01:08:40;;;;;;;15.50;13.00;;;;;;;12.29;80.99;100831.17;88474;280;136582;-70
2023/09/11 01:10:44;;;;;;;14.60;11.60;;;;;;;12.26;81.14;100827.30;88626;273;22661;-68
2023/09/11 01:12:47;;;;;;;15.60;11.40;;;;;;;12.21;81.35;100825.16;88388;275;136045;-66
2023/09/11 01:14:49;;;;;;;14.00;10.40;;;;;;;12.14;81.73;100819.11;88544;282;22533;-67
2023/09/11 01:17:35;;;;;;;13.30;9.90;;;;;;;12.05;82.42;100817.02;88426;274;137287;-66
2023/09/11 01:19:44;;;;;;;;;;;;;;;12.05;82.60;100818.27;88567;280;25099;-66
2023/09/11 01:22:49;;;;;;;12.50;10.10;;;;;;;12.07;82.71;100820.16;88355;277;123320;-67
2023/09/11 01:25:12;;;;;;;13.50;9.30;;;;;;;12.13;82.40;100816.41;88248;287;137418;-68
2023/09/11 01:27:41;;;;;;;11.20;9.10;;;;;;;12.12;82.65;100814.80;88209;279;22621;-66
2023/09/11 01:29:44;;;;;;;12.30;10.00;;;;;;;12.11;82.59;100810.04;88312;281;136818;-66
2023/09/11 01:31:47;;;;;;;13.50;10.10;;;;;;;12.09;82.61;100807.73;88558;272;24589;-68
2023/09/11 01:33:53;;;;;;;12.50;9.60;;;;;;;11.98;82.72;100791.33;88520;274;137521;-65
2023/09/11 01:35:55;;;;;;;12.30;10.30;;;;;;;12.09;82.50;100801.98;88541;281;22544;-67
2023/09/11 01:37:59;;;;;;;13.10;9.90;;;;;;;12.09;82.59;100804.28;88448;278;136630;-65
2023/09/11 01:40:01;;;;;;;12.90;10.60;;;;;;;12.08;82.60;100804.69;88509;282;25223;-66
2023/09/11 01:42:07;;;;;;;13.20;10.50;;;;;;;12.03;82.82;100803.71;88606;274;137306;-68
2023/09/11 01:44:30;;;;;;;11.20;9.40;;;;;;;11.92;83.40;100806.90;88618;280;137024;-69
2023/09/11 01:46:33;;;;;;;12.90;9.80;;;;;;;11.91;83.63;100806.73;88535;273;25219;-68
2023/09/11 01:48:36;;;;;;;11.40;10.10;;;;;;;11.89;83.69;100805.51;88476;275;137952;-66
2023/09/11 01:50:41;;;;;;;10.60;9.40;;;;;;;11.87;83.96;100806.36;88645;277;25232;-66
2023/09/11 01:52:45;;;;;;;12.60;10.90;;;;;;;11.80;83.98;100795.46;88438;279;139763;-68
2023/09/11 01:54:48;;;;;;;11.10;9.70;;;;;;;11.87;84.19;100804.06;88679;281;25213;-67
2023/09/11 01:56:50;;;;;;;10.80;9.30;;;;;;;11.97;83.92;100802.89;87823;281;881560;-68
2023/09/11 01:58:56;;;;;;;10.40;9.40;;;;;;;11.98;83.71;100804.67;88587;281;22562;-66
2023/09/11 02:00:58;;;;;;;12.20;10.10;;;;;;;11.98;84.00;100804.02;88367;279;137065;-66
2023/09/11 02:03:01;;;;;;;12.00;9.90;;;;;;;11.96;84.25;100799.92;88488;280;23902;-66
2023/09/11 02:05:04;;;;;;;11.30;9.10;;;;;;;12.00;84.31;100800.71;88456;280;138482;-66
2023/09/11 02:07:21;;;;;;;12.30;9.50;;;;;;;12.04;84.33;100798.10;88668;282;24196;-68
2023/09/11 02:09:29;;;;;;;15.90;10.00;;;;;;;12.10;84.08;100799.32;88342;276;137537;-68
2023/09/11 02:11:31;;;;;;;11.50;8.40;;;;;;;12.10;84.09;100798.02;88551;273;22520;-66
2023/09/11 02:13:32;;;;;;;9.60;8.70;;;;;;;12.09;84.22;100796.38;88428;282;137216;-63
2023/09/11 02:15:34;;;;;;;13.20;10.30;;;;;;;12.07;83.99;100795.39;88505;282;22526;-67
2023/09/11 02:17:36;;;;;;;12.00;9.40;;;;;;;12.03;84.03;100794.09;88518;276;137961;-70
2023/09/11 02:19:39;;;;;;;15.50;10.60;;;;;;;12.02;84.05;100793.27;88537;274;22541;-66
2023/09/11 02:21:41;;;;;;;10.40;9.30;;;;;;;12.02;84.06;100792.32;88369;274;136524;-66
2023/09/11 02:23:44;;;;;;;11.30;9.60;;;;;;;12.00;84.47;100791.94;88581;281;24058;-66
2023/09/11 02:25:48;;;;;;;13.30;10.20;;;;;;;11.99;84.53;100791.88;88446;273;137121;-69
2023/09/11 02:27:51;;;;;;;14.70;9.60;;;;;;;11.91;84.33;100780.95;88577;282;22558;-68
2023/09/11 02:29:52;;;;;;;13.90;10.70;;;;;;;11.96;84.29;100793.65;88477;281;139185;-67
2023/09/11 02:31:57;;;;;;;14.30;9.80;;;;;;;11.97;84.56;100793.36;88589;275;25083;-67
2023/09/11 02:33:58;;;;;;;9.90;8.90;;;;;;;11.97;84.62;100797.35;88369;278;137658;-67
2023/09/11 02:36:02;;;;;;;14.00;8.90;;;;;;;11.99;84.55;100795.85;88583;280;22533;-65
2023/09/11 02:38:04;;;;;;;13.60;10.00;;;;;;;11.97;84.69;100796.31;88599;273;24102;-66
2023/09/11 02:40:07;;;;;;;10.30;8.60;;;;;;;11.91;84.70;100795.59;88391;281;138918;-65
2023/09/11 02:42:08;;;;;;;11.30;9.30;;;;;;;11.88;84.81;100793.92;88510;278;22537;-65
2023/09/11 02:44:10;;;;;;;10.70;9.40;;;;;;;11.83;84.86;100793.73;88354;273;136885;-69
2023/09/11 02:46:12;;;;;;;11.00;9.20;;;;;;;11.82;84.93;100791.77;88597;274;25157;-67
2023/09/11 02:48:14;;;;;;;8.70;7.80;;;;;;;11.79;85.19;100796.72;88509;272;137077;-67
2023/09/11 02:50:16;;;;;;;11.70;8.80;;;;;;;11.78;85.45;100795.88;88520;278;26181;-64
2023/09/11 02:52:19;;;;;;;13.00;9.60;;;;;;;11.81;85.47;100796.34;88457;281;136979;-67
2023/09/11 02:54:21;;;;;;;10.80;9.10;;;;;;;11.83;85.65;100799.89;88572;280;25067;-68
2023/09/11 02:56:22;;;;;;;15.80;9.50;;;;;;;11.86;85.49;100797.67;88515;280;138038;-67
2023/09/11 02:58:25;;;;;;;11.40;9.00;;;;;;;11.89;85.22;100799.46;88686;280;22567;-72
2023/09/11 03:00:27;;;;;;;14.70;9.20;;;;;;;11.86;85.15;100797.75;88424;280;136194;-65
2023/09/11 03:02:30;;;;;;;11.90;9.70;;;;;;;11.80;85.46;100799.82;88569;274;23184;-67
2023/09/11 03:04:32;;;;;;;12.90;10.70;;;;;;;11.72;85.47;100787.87;88485;281;137062;-68
2023/09/11 03:06:34;;;;;;;12.70;9.80;;;;;;;11.79;85.40;100800.17;88660;277;22618;-68
2023/09/11 03:08:36;;;;;;;11.10;9.70;;;;;;;11.79;85.22;100800.90;88523;272;136938;-66
2023/09/11 03:10:38;;;;;;;9.70;8.70;;;;;;;11.76;85.27;100798.19;88620;280;23749;-69
2023/09/11 03:12:40;;;;;;;12.10;9.50;;;;;;;11.75;85.36;100796.20;88432;273;137255;-65
2023/09/11 03:14:41;;;;;;;12.40;9.00;;;;;;;11.73;85.29;100795.15;88553;273;25090;-66
2023/09/11 03:16:45;;;;;;;13.60;9.70;;;;;;;11.73;85.36;100793.80;88629;273;137152;-66
2023/09/11 03:18:46;;;;;;;17.80;10.00;;;;;;;11.70;85.51;100790.92;88715;273;22539;-68
2023/09/11 03:20:54;;;;;;;11.20;9.00;;;;;;;11.69;85.75;100791.04;89094;280;138173;-67
2023/09/11 03:22:59;;;;;;;13.40;9.20;;;;;;;11.74;85.93;100794.05;89402;280;22545;-66
2023/09/11 03:25:02;;;;;;;10.80;9.50;;;;;;;11.79;85.94;100796.27;89530;277;136749;-66
2023/09/11 03:27:04;;;;;;;12.20;9.30;;;;;;;11.80;85.77;100794.10;89702;281;22485;-65
2023/09/11 03:29:06;;;;;;;14.10;8.90;;;;;;;11.86;85.99;100795.58;89396;278;137384;-66
2023/09/11 03:31:07;;;;;;;11.10;8.70;;;;;;;11.86;86.07;100786.55;89281;280;22599;-66
2023/09/11 03:33:09;;;;;;;12.80;9.60;;;;;;;11.98;85.92;100798.85;88600;282;137027;-67
2023/09/11 03:35:11;;;;;;;14.90;9.90;;;;;;;12.02;85.91;100794.34;88696;281;22556;-66
2023/09/11 03:37:13;;;;;;;12.80;9.80;;;;;;;12.10;85.68;100795.25;88564;280;138401;-68
2023/09/11 03:39:17;;;;;;;14.10;10.20;;;;;;;12.12;85.64;100792.52;88786;281;22541;-68
2023/09/11 03:41:19;;;;;;;13.30;10.20;;;;;;;12.14;85.23;100791.14;88566;281;136357;-68
2023/09/11 03:43:21;;;;;;;13.10;10.40;;;;;;;12.13;84.92;100790.43;88615;281;22658;-68
2023/09/11 03:45:26;;;;;;;15.30;10.30;;;;;;;12.12;84.90;100793.02;88499;280;137362;-65
2023/09/11 03:47:28;;;;;;;13.40;9.10;;;;;;;12.13;84.81;100793.24;88603;275;22545;-65
2023/09/11 03:49:30;;;;;;;13.30;9.80;;;;;;;12.15;84.48;100793.17;88526;280;138442;-68
2023/09/11 03:51:32;;;;;;;12.20;10.30;;;;;;;12.18;84.68;100788.65;88575;279;24088;-67
2023/09/11 03:53:34;;;;;;;13.90;10.00;;;;;;;12.26;84.57;100785.38;88438;273;137560;-64
2023/09/11 03:55:36;;;;;;;11.70;9.60;;;;;;;12.45;84.88;100783.84;88618;276;22542;-65
2023/09/11 03:57:39;;;;;;;13.10;10.00;;;;;;;12.69;84.71;100771.13;88546;273;137909;-67
2023/09/11 03:59:41;;;;;;;11.20;8.80;;;;;;;13.15;83.86;100781.86;88484;273;24173;-65
2023/09/11 04:01:43;;;;;;;12.80;10.00;;;;;;;13.54;82.08;100781.15;88204;275;136559;-67
2023/09/11 04:03:45;;;;;;;13.30;10.00;;;;;;;13.96;80.18;100781.73;88410;273;24041;-68
2023/09/11 04:05:47;;;;;;;19.60;11.00;;;;;;;14.42;77.90;100782.50;88248;277;136637;-66
2023/09/11 04:07:49;;;;;;;18.40;11.40;;;;;;;14.88;75.46;100784.77;88345;278;22524;-66
2023/09/11 04:09:51;;;;;;;14.20;9.70;;;;;;;15.42;72.87;100785.25;88317;274;136521;-67
2023/09/11 04:11:53;;;;;;;14.10;10.70;;;;;;;15.99;70.40;100785.03;88422;273;22534;-68
2023/09/11 04:13:55;;;;;;;15.10;9.60;;;;;;;16.46;67.88;100782.73;88356;275;136196;-68
2023/09/11 04:15:57;;;;;;;15.40;9.50;;;;;;;16.90;65.72;100780.34;88463;282;23708;-66
2023/09/11 04:17:59;;;;;;;17.60;10.30;;;;;;;17.28;63.85;100781.14;88433;274;136269;-68
2023/09/11 04:20:01;;;;;;;18.00;10.80;;;;;;;17.62;62.11;100779.25;88513;281;22699;-65
2023/09/11 04:22:04;;;;;;;12.70;10.20;;;;;;;17.96;60.98;100779.13;88531;278;23762;-66
2023/09/11 04:24:12;;;;;;;15.00;10.60;;;;;;;18.35;59.22;100777.26;88581;272;136172;-70
2023/09/11 04:26:15;;;;;;;17.90;11.80;;;;;;;18.78;57.42;100775.33;88721;273;22531;-70
2023/09/11 04:28:17;;;;;;;18.00;10.60;;;;;;;19.12;55.47;100775.68;88565;279;137994;-69
2023/09/11 04:30:19;;;;;;;18.50;11.10;;;;;;;19.45;54.07;100772.52;88508;280;23978;-68
2023/09/11 04:32:23;;;;;;;11.60;9.70;;;;;;;19.75;52.42;100777.19;88458;278;137662;-69
2023/09/11 04:34:26;;;;;;;12.10;9.60;;;;;;;19.96;51.69;100772.75;88532;277;24127;-70
2023/09/11 04:36:28;;;;;;;17.30;10.00;;;;;;;20.20;51.46;100773.81;88604;278;136575;-69
2023/09/11 04:38:30;;;;;;;14.60;9.90;;;;;;;20.56;50.30;100771.77;88855;282;22737;-66
2023/09/11 04:40:33;;;;;;;12.50;9.30;;;;;;;20.84;49.42;100771.83;88568;277;136373;-68
2023/09/11 04:42:37;;;;;;;15.10;10.20;;;;;;;20.96;48.75;100764.33;88573;279;24021;-71
2023/09/11 04:44:39;;;;;;;12.80;10.00;;;;;;;20.93;48.16;100765.59;88619;281;136321;-71
2023/09/11 04:46:45;;;;;;;;;;;;;;;20.83;48.16;100765.57;88649;277;22833;-72
2023/09/11 04:48:47;;;;;;;25.90;10.30;;;;;;;20.66;48.45;100761.11;88581;272;122663;-71
2023/09/11 04:50:50;;;;;;;13.80;9.60;;;;;;;20.45;48.66;100764.41;88475;273;25105;-68
2023/09/11 04:52:55;;;;;;;14.70;10.40;;;;;;;20.26;49.14;100763.11;88436;280;136760;-73
2023/09/11 04:54:58;;;;;;;13.90;10.20;;;;;;;20.13;49.63;100763.66;88657;277;23859;-73
2023/09/11 04:57:00;;;;;;;17.70;10.30;;;;;;;20.01;50.19;100760.52;88557;280;137476;-73
2023/09/11 04:59:03;;;;;;;13.50;9.40;;;;;;;19.94;50.60;100761.41;88602;281;23879;-71
2023/09/11 05:01:05;;;;;;;13.50;10.30;;;;;;;19.92;50.36;100756.39;88451;282;136525;-69
2023/09/11 05:03:07;;;;;;;15.50;10.30;;;;;;;19.86;50.51;100756.48;88743;282;22555;-70
2023/09/11 05:05:09;;;;;;;12.50;10.10;;;;;;;19.86;50.86;100754.64;88563;282;136596;-67
2023/09/11 05:07:11;;;;;;;20.80;11.30;;;;;;;19.88;50.89;100757.67;88554;277;24440;-71
2023/09/11 05:09:13;;;;;;;14.20;10.40;;;;;;;19.98;50.58;100755.92;88289;279;136861;-72
2023/09/11 05:11:17;;;;;;;22.90;10.40;;;;;;;20.15;50.40;100759.04;90096;280;22551;-74
2023/09/11 05:13:19;;;;;;;17.10;10.70;;;;;;;20.33;50.44;100757.02;88538;280;136480;-72
2023/09/11 05:15:21;;;;;;;14.70;9.40;;;;;;;20.57;49.63;100752.73;88515;278;25121;-72
2023/09/11 05:17:23;;;;;;;17.80;10.50;;;;;;;20.84;49.42;100751.18;88375;281;136404;-71
2023/09/11 05:19:25;;;;;;;16.00;10.00;;;;;;;21.06;48.93;100753.80;88410;283;26309;-70
2023/09/11 05:21:27;;;;;;;13.90;9.60;;;;;;;21.27;48.37;100751.73;88359;282;136424;-71
2023/09/11 05:23:29;;;;;;;17.40;9.50;;;;;;;21.40;47.22;100735.54;88491;282;22538;-69
2023/09/11 05:25:31;;;;;;;19.30;9.90;;;;;;;21.60;46.61;100749.81;88358;281;137350;-72
2023/09/11 05:27:32;;;;;;;13.20;9.20;;;;;;;21.68;46.46;100745.79;88572;281;22618;-70
2023/09/11 05:29:34;;;;;;;9.00;7.90;;;;;;;21.79;46.36;100748.09;88298;276;137943;-72
2023/09/11 05:31:36;;;;;;;14.00;8.90;;;;;;;21.90;46.45;100752.62;88549;281;22549;-71
2023/09/11 05:33:38;;;;;;;13.60;8.60;;;;;;;21.98;46.31;100753.04;88415;274;137817;-73
2023/09/11 05:35:40;;;;;;;13.10;9.50;;;;;;;22.04;46.24;100753.20;88545;282;25080;-71
2023/09/11 05:37:42;;;;;;;12.00;8.60;;;;;;;22.08;46.01;100750.38;88412;277;137715;-73
2023/09/11 05:39:46;;;;;;;16.10;9.10;;;;;;;22.16;45.73;100754.63;88512;274;22619;-70
2023/09/11 05:41:47;;;;;;;14.30;9.30;;;;;;;22.32;45.47;100754.73;88398;274;136522;-69
2023/09/11 05:43:49;;;;;;;21.20;9.50;;;;;;;22.53;44.63;100752.36;88500;281;24133;-71
2023/09/11 05:45:52;;;;;;;12.90;9.20;;;;;;;22.78;43.93;100751.71;88194;275;136533;-70
2023/09/11 05:47:54;;;;;;;13.00;8.80;;;;;;;23.04;43.78;100751.31;88577;278;24962;-70
2023/09/11 05:50:00;;;;;;;10.40;9.30;;;;;;;23.31;43.04;100747.47;88564;277;137508;-76
2023/09/11 05:52:03;;;;;;;13.20;8.40;;;;;;;23.54;42.17;100744.92;88704;281;22879;-72
2023/09/11 05:54:06;;;;;;;15.20;8.40;;;;;;;23.72;41.95;100746.64;88559;281;22785;-71
2023/09/11 05:56:07;;;;;;;15.20;8.00;;;;;;;23.90;41.76;100747.83;88633;274;136543;-70
2023/09/11 05:59:37;;;;;;;12.00;7.10;;;;;;;24.21;41.39;100746.15;86807;303;602948;-73
2023/09/11 06:01:39;;;;;;;13.90;8.00;;;;;;;24.43;40.68;100733.89;87629;293;136802;-73
2023/09/11 06:03:41;;;;;;;9.80;7.30;;;;;;;24.70;40.04;100741.16;87815;293;22908;-73
2023/09/11 06:05:43;;;;;;;15.10;7.00;;;;;;;24.86;39.50;100738.80;87586;290;135810;-74
2023/09/11 06:07:45;;;;;;;15.30;6.80;;;;;;;24.98;39.08;100742.83;87681;289;24200;-74
2023/09/11 06:09:47;;;;;;;12.70;7.10;;;;;;;25.12;38.67;100741.16;87746;296;135485;-71
2023/09/11 06:11:49;;;;;;;13.20;7.50;;;;;;;25.21;38.39;100740.77;87649;293;25173;-71
2023/09/11 06:13:51;;;;;;;13.40;6.80;;;;;;;25.25;38.13;100739.48;87247;294;562004;-70
2023/09/11 06:15:53;;;;;;;10.00;7.10;;;;;;;25.33;38.19;100735.80;87768;294;24193;-71
2023/09/11 06:17:55;;;;;;;10.60;7.10;;;;;;;25.46;37.87;100735.27;88088;280;136055;-71
2023/09/11 06:19:57;;;;;;;14.90;5.00;;;;;;;25.57;37.59;100736.80;88453;277;26124;-70
2023/09/11 06:22:00;;;;;;;7.20;6.00;;;;;;;25.62;37.14;100736.63;88256;278;137354;-74
2023/09/11 06:24:04;;;;;;;7.90;6.10;;;;;;;25.58;37.32;100739.27;88525;284;22510;-72
2023/09/11 06:26:06;;;;;;;;;;;;;;;25.54;37.39;100740.92;89142;281;22661;-69
2023/09/11 06:28:09;;;;;;;11.10;5.50;;;;;;;25.58;37.67;100736.80;88887;285;122558;-71
2023/09/11 06:30:11;;;;;;;11.50;6.30;;;;;;;25.67;37.06;100737.04;88602;279;25144;-71
2023/09/11 06:32:15;;;;;;;9.50;6.30;;;;;;;25.73;37.10;100743.13;88176;281;137459;-70
2023/09/11 06:34:17;;;;;;;7.80;4.80;;;;;;;25.78;36.66;100740.86;88350;278;22547;-72
2023/09/11 06:36:18;;;;;;;8.10;4.60;;;;;;;25.78;36.24;100744.58;88151;281;136017;-70
2023/09/11 06:38:21;;;;;;;8.40;4.30;;;;;;;25.69;36.50;100740.36;88301;280;24218;-71
2023/09/11 06:40:23;;;;;;;11.90;4.70;;;;;;;25.69;36.48;100738.07;88255;278;136051;-73
2023/09/11 06:42:25;;;;;;;9.40;4.90;;;;;;;25.69;36.50;100739.76;88273;278;25916;-71
2023/09/11 06:44:27;;;;;;;7.60;5.00;;;;;;;25.56;36.78;100738.23;88133;282;135842;-73
2023/09/11 06:46:29;;;;;;;5.50;3.90;;;;;;;25.37;37.18;100739.27;88168;279;25470;-71
2023/09/11 06:48:31;;;;;;;5.70;3.70;;;;;;;25.12;36.81;100742.09;88230;279;135998;-72
2023/09/11 06:50:34;;;;;;;4.00;3.60;;;;;;;24.76;37.31;100743.48;88473;278;22548;-73
2023/09/11 06:52:38;;;;;;;3.10;2.60;;;;;;;24.41;37.34;100739.70;88272;276;135988;-74
2023/09/11 06:54:40;;;;;;;3.60;2.50;;;;;;;23.96;37.46;100739.08;88357;276;22561;-72
2023/09/11 06:56:42;;;;;;;6.70;2.30;;;;;;;23.52;38.25;100741.98;88321;276;135933;-72
2023/09/11 06:58:45;;;;;;;6.50;2.90;;;;;;;23.19;38.84;100745.06;88461;282;24170;-72
2023/09/11 07:00:47;;;;;;;4.80;2.00;;;;;;;22.98;39.27;100745.93;87971;278;136106;-72
2023/09/11 07:02:49;;;;;;;3.40;2.20;;;;;;;22.81;39.40;100747.59;88364;281;22548;-71
2023/09/11 07:04:52;;;;;;;6.00;1.90;;;;;;;22.56;39.52;100736.70;88135;277;136710;-72
2023/09/11 07:06:56;;;;;;;2.60;1.90;;;;;;;22.44;39.98;100746.54;88181;281;22533;-70
2023/09/11 07:08:58;;;;;;;2.30;1.50;;;;;;;22.28;40.17;100748.70;88306;283;135964;-70
2023/09/11 07:11:00;;;;;;;4.50;1.90;;;;;;;22.13;40.21;100747.27;88270;276;24456;-69
2023/09/11 07:13:02;;;;;;;9.00;2.20;;;;;;;22.03;40.64;100747.05;88202;282;135563;-71
2023/09/11 07:15:05;;;;;;;3.10;1.30;;;;;;;21.93;40.25;100745.05;88355;282;22539;-71
2023/09/11 07:17:07;;;;;;;7.00;2.50;;;;;;;21.80;40.44;100741.81;88331;284;136006;-68
2023/09/11 07:19:09;;;;;;;4.40;1.50;;;;;;;21.69;40.65;100743.73;88378;276;24052;-70
2023/09/11 07:21:11;;;;;;;6.60;1.70;;;;;;;21.57;40.92;100738.81;88368;284;137564;-70
2023/09/11 07:23:13;;;;;;;4.40;1.70;;;;;;;21.49;41.45;100741.15;88269;284;24224;-70
2023/09/11 07:25:18;;;;;;;2.10;1.30;;;;;;;21.45;41.15;100745.39;88280;277;136227;-72
2023/09/11 07:27:21;;;;;;;;;;;;;;;21.36;41.71;100739.60;88507;282;26327;-71
2023/09/11 07:29:26;;;;;;;4.60;1.10;;;;;;;21.30;41.65;100738.75;88243;275;122687;-70
2023/09/11 07:31:29;;;;;;;5.10;1.70;;;;;;;21.23;41.89;100737.29;88392;280;22625;-70
2023/09/11 07:33:31;;;;;;;7.00;1.40;;;;;;;21.22;42.19;100731.27;88423;283;136054;-71
2023/09/11 07:35:33;;;;;;;1.90;1.10;;;;;;;21.22;41.70;100731.04;88520;282;22497;-72
2023/09/11 07:37:37;;;;;;;2.50;1.20;;;;;;;21.18;41.97;100729.20;88499;278;136168;-67
2023/09/11 07:39:40;;;;;;;4.70;1.30;;;;;;;21.15;42.12;100728.19;88375;276;22561;-64
2023/09/11 07:41:42;;;;;;;2.10;0.90;;;;;;;21.13;42.01;100729.02;88256;283;136376;-64
2023/09/11 07:43:50;;;;;;;2.30;1.20;;;;;;;21.13;41.90;100725.11;88331;281;25083;-70
2023/09/11 07:45:53;;;;;;;4.70;0.90;;;;;;;21.13;42.24;100726.31;88265;284;136173;-63
2023/09/11 07:47:55;;;;;;;4.80;1.50;;;;;;;21.14;41.64;100726.65;88430;277;22618;-62
2023/09/11 07:49:57;;;;;;;1.30;0.50;;;;;;;21.11;41.45;100723.74;88322;284;135042;-62
2023/09/11 07:51:59;;;;;;;2.30;0.80;;;;;;;21.09;41.38;100721.43;88349;277;25083;-64
2023/09/11 07:54:00;;;;;;;2.30;0.80;;;;;;;21.11;41.66;100722.86;88193;276;135819;-66
2023/09/11 07:56:07;;;;;;;5.10;1.10;;;;;;;21.14;42.04;100723.17;88331;280;23978;-64
2023/09/11 07:58:09;;;;;;;2.50;0.70;;;;;;;21.14;42.17;100724.41;88615;275;22541;-62
2023/09/11 08:00:12;;;;;;;2.40;0.70;;;;;;;21.14;42.13;100725.52;88327;279;136132;-62
2023/09/11 08:02:14;;;;;;;3.60;0.50;;;;;;;21.14;42.27;100725.73;88349;283;25229;-62
2023/09/11 08:04:16;;;;;;;2.30;0.70;;;;;;;21.06;42.44;100724.81;88319;283;137504;-64
2023/09/11 08:06:18;;;;;;;2.80;0.90;;;;;;;20.98;42.87;100725.61;88369;276;23752;-58
2023/09/11 08:08:20;;;;;;;0.60;0.60;;;;;;;20.97;42.90;100726.74;88067;282;136081;-62
2023/09/11 08:10:23;;;;;;;1.30;0.50;;;;;;;20.99;43.08;100728.02;88575;279;22531;-62
2023/09/11 08:12:24;;;;;;;2.50;0.50;;;;;;;21.02;43.14;100726.63;88354;274;135827;-65
2023/09/11 08:14:26;;;;;;;0.70;0.60;;;;;;;21.02;42.98;100721.60;88372;276;22572;-64
2023/09/11 08:16:29;;;;;;;5.20;0.70;;;;;;;21.07;42.97;100719.12;88247;280;137312;-63
2023/09/11 08:18:30;;;;;;;0.80;0.40;;;;;;;21.17;42.92;100719.20;88398;276;22555;-62
2023/09/11 08:20:33;;;;;;;3.40;0.50;;;;;;;21.26;42.60;100719.05;88224;283;138066;-71
2023/09/11 08:22:35;;;;;;;2.10;0.30;;;;;;;21.33;42.51;100716.40;88679;275;22600;-67
2023/09/11 08:24:37;;;;;;;2.80;0.70;;;;;;;21.41;42.29;100714.44;88448;276;135672;-58
2023/09/11 08:26:38;;;;;;;5.90;0.50;;;;;;;21.47;42.16;100714.33;88386;282;25083;-62
2023/09/11 08:28:40;;;;;;;1.10;0.70;;;;;;;21.51;42.02;100715.30;88292;275;135806;-63
2023/09/11 08:30:43;;;;;;;1.20;0.80;;;;;;;21.51;41.90;100714.71;88282;276;24038;-64
2023/09/11 08:32:45;;;;;;;1.50;0.50;;;;;;;21.50;41.75;100715.29;88275;276;136860;-63
2023/09/11 08:34:47;;;;;;;1.30;0.30;;;;;;;21.47;41.77;100714.27;88423;274;25106;-64
2023/09/11 08:36:49;;;;;;;0.70;0.50;;;;;;;21.38;41.91;100717.89;88367;282;135538;-64
2023/09/11 08:38:51;;;;;;;0.90;0.30;;;;;;;21.33;42.11;100714.84;88425;275;25338;-61
2023/09/11 08:40:53;;;;;;;1.50;0.60;;;;;;;21.33;42.14;100710.93;88400;276;135986;-65
2023/09/11 08:42:54;;;;;;;2.80;0.60;;;;;;;21.37;42.35;100709.46;88330;280;22539;-63
2023/09/11 08:44:58;;;;;;;3.70;0.50;;;;;;;21.39;42.36;100706.56;88222;277;135806;-65
2023/09/11 08:47:04;;;;;;;0.80;0.50;;;;;;;21.38;42.21;100704.98;88397;278;22544;-65
2023/09/11 08:49:10;;;;;;;1.10;0.90;;;;;;;21.36;42.20;100709.39;88270;276;137080;-62
2023/09/11 08:51:21;;;;;;;0.80;0.40;;;;;;;21.33;42.14;100704.94;88341;276;25128;-63
2023/09/11 08:53:25;;;;;;;1.00;0.40;;;;;;;21.29;42.11;100698.61;88135;276;138268;-64
2023/09/11 08:55:29;;;;;;;1.40;0.60;;;;;;;21.28;42.48;100693.34;88422;283;25109;-66
2023/09/11 08:57:33;;;;;;;1.10;0.40;;;;;;;21.31;42.27;100693.48;88286;280;136926;-65
2023/09/11 08:59:38;;;;;;;2.30;0.70;;;;;;;21.26;42.01;100680.19;88282;279;24136;-67
2023/09/11 09:01:41;;;;;;;3.90;0.80;;;;;;;21.28;42.28;100685.27;88286;276;135961;-68
2023/09/11 09:03:45;;;;;;;0.50;0.40;;;;;;;21.28;42.42;100677.51;88293;277;24017;-63
2023/09/11 09:05:47;;;;;;;1.20;0.20;;;;;;;21.31;42.32;100679.38;88418;283;136557;-65
2023/09/11 09:07:51;;;;;;;1.80;0.40;;;;;;;21.34;42.56;100672.83;88238;282;25124;-69
2023/09/11 09:09:54;;;;;;;0.30;0.30;;;;;;;21.40;42.28;100675.75;88354;277;136190;-64
2023/09/11 09:11:57;;;;;;;2.60;0.30;;;;;;;21.42;42.19;100675.08;88342;281;22558;-64
2023/09/11 09:14:05;;;;;;;1.80;0.40;;;;;;;21.42;42.15;100669.81;88176;283;136677;-62
2023/09/11 09:16:07;;;;;;;1.20;0.20;;;;;;;21.44;42.21;100670.20;88110;276;137518;-61
2023/09/11 09:18:09;;;;;;;1.30;0.30;;;;;;;21.45;42.01;100663.77;88333;281;22527;-63
2023/09/11 09:20:12;;;;;;;0.90;0.60;;;;;;;21.50;42.22;100661.05;88371;276;136675;-65
2023/09/11 09:22:16;;;;;;;0.90;0.40;;;;;;;21.57;41.87;100663.89;88614;275;22769;-60
2023/09/11 09:24:18;;;;;;;0.70;0.30;;;;;;;21.61;41.51;100661.94;88371;275;136834;-64
2023/09/11 09:26:22;;;;;;;0.90;0.30;;;;;;;21.60;41.55;100659.44;88341;275;22541;-66
2023/09/11 09:28:30;;;;;;;0.50;0.30;;;;;;;21.57;41.82;100658.70;88283;275;136170;-63
2023/09/11 09:30:38;;;;;;;3.20;0.30;;;;;;;21.54;41.83;100653.94;88394;282;25096;-64
2023/09/11 09:32:40;;;;;;;1.60;0.30;;;;;;;21.51;41.83;100658.46;88174;275;136202;-62
2023/09/11 09:34:51;;;;;;;0.40;0.30;;;;;;;21.49;41.77;100656.34;88659;279;22534;-65